Tunkhannock, Pennsylvania
Current Conditions -  °F | °C
As of 10:54 AM on Tuesday 21 Oct 2014 (Local Time) from KAVP Reporting Station
Overcast Overcast  
Wind Chill: 57°   Ceiling: 6500
Heat Index: 57°   Visibility: 9mi
Dew Point: 50°   Wind: 0mph
Humidity: 77%   Direction: NA
Pressure: 29.86"   Gusts: NA
Location:  41.54°N, 75.95°W
Report Text: KAVP 211454Z 00000KT 9SM FEW020 SCT046 OVC065 14/10 A2986 RMK AO2 SLP110 T01390100 50002
Loading
Personal Weather Stations






























Interactive Weather Map
Tropical Storm Tracking
New forecast layout! Learn more

10-Day Weather Forecast

Advertisements
Track Severe Weather on mobile